Photometre #399[NE_1.2] Lille AOT

File : 20190923_399.hum

23/09/2019,06:31:11,TEMP=13.2,BA=5.64,STAT.A=2.0,ExtBa=12.36
23/09/2019,06:35:16,TEMP=13.5,BA=5.64,STAT.A=2.0,ExtBa=12.33
23/09/2019,06:40:02,TEMP=13.8,BA=5.64,STAT.A=2.0,ExtBa=12.32
23/09/2019,06:45:43,TEMP=14.1,BA=5.60,STAT.A=2.0,ExtBa=12.31
23/09/2019,06:52:36,TEMP=14.3,BA=5.64,STAT.A=2.0,ExtBa=12.31
23/09/2019,07:01:05,TEMP=14.6,BA=5.64,STAT.A=2.0,ExtBa=12.32
23/09/2019,07:01:35,TEMP=14.6,BA=5.64,STAT.h
23/09/2019,07:01:47,TEMP=14.6,BA=5.64,STAT.h
23/09/2019,07:11:52,TEMP=14.7,BA=5.64,STAT.B=2.0,ExtBa=12.32
23/09/2019,07:12:42,TEMP=14.7,BA=5.64,STAT.h
23/09/2019,07:12:54,TEMP=14.7,BA=5.64,STAT.h
23/09/2019,07:17:03,TEMP=14.6,BA=5.64,STAT.A=2.0,ExtBa=12.32
23/09/2019,07:17:15,TEMP=14.6,BA=5.64,STAT.h
23/09/2019,07:17:27,TEMP=14.6,BA=5.64,STAT.h
23/09/2019,07:22:52,TEMP=14.6,BA=5.64,STAT.A=2.0,ExtBa=12.32
23/09/2019,07:29:29,TEMP=14.6,BA=5.64,STAT.A=2.0,ExtBa=12.31
23/09/2019,07:37:01,TEMP=14.9,BA=5.56,STAT.A=2.0,ExtBa=12.31
23/09/2019,07:45:43,TEMP=15.2,BA=5.64,STAT.C=2.0,ExtBa=12.31
23/09/2019,08:01:26,TEMP=16.3,BA=5.52,STAT.A=2.0,ExtBa=12.20
23/09/2019,08:02:00,TEMP=16.3,BA=5.52,STAT.h
23/09/2019,08:02:12,TEMP=16.3,BA=5.52,STAT.h
23/09/2019,08:08:06,TEMP=16.9,BA=5.52,STAT.A=2.0,ExtBa=12.23
23/09/2019,08:22:56,TEMP=17.7,BA=5.64,STAT.A=2.0,ExtBa=12.25
23/09/2019,08:40:33,TEMP=18.5,BA=5.64,STAT.F,ExtBa=12.25
23/09/2019,08:55:31,TEMP=19.0,BA=5.52,STAT.D=2.0,ExtBa=12.16
23/09/2019,09:10:32,TEMP=19.4,BA=5.64,STAT.D=2.0,ExtBa=12.21
23/09/2019,09:25:32,TEMP=19.8,BA=5.64,STAT.D=2.0,ExtBa=12.22